Time;durP1;ratioP1;P1;durP2;ratioP2;P2;SDS_P1;SDS_P2;PMS_P1;PMS_P2;Temp;Humidity;BMP_temperature;BMP_pressure;BME280_temperature;BME280_humidity;BME280_pressure;Samples;Min_cycle;Max_cycle;Signal;HPM_P1;HPM_P2
2021/05/19 00:00:29;;;;;;;8.37;6.87;;;;;;;11.00;76.28;99215.11;232573;1170;116297;-70
2021/05/19 00:05:49;;;;;;;12.97;7.73;;;;;;;11.01;76.36;99219.36;232607;1176;117160;-72
2021/05/19 00:10:53;;;;;;;8.33;7.10;;;;;;;11.04;76.67;99223.39;232549;1174;116765;-70
2021/05/19 00:16:00;;;;;;;7.27;6.53;;;;;;;11.04;77.38;99221.53;232556;1174;116492;-69
2021/05/19 00:21:06;;;;;;;11.87;7.03;;;;;;;11.07;76.56;99222.90;232635;1170;116333;-68
2021/05/19 00:26:09;;;;;;;7.10;6.08;;;;;;;11.04;77.00;99226.06;232583;1176;115940;-68
2021/05/19 00:31:15;;;;;;;9.00;5.70;;;;;;;11.03;76.96;99227.92;232390;1174;116160;-67
2021/05/19 00:36:18;;;;;;;8.18;6.58;;;;;;;11.05;77.20;99228.48;232580;1174;116462;-70
2021/05/19 00:41:22;;;;;;;7.70;6.47;;;;;;;11.07;77.20;99234.38;232517;1174;115000;-70
2021/05/19 00:46:26;;;;;;;6.87;6.00;;;;;;;11.13;77.43;99233.38;232526;1174;115742;-69
2021/05/19 00:51:30;;;;;;;6.98;5.98;;;;;;;11.12;77.18;99231.77;233387;1174;115642;-70
2021/05/19 00:56:33;;;;;;;8.85;6.15;;;;;;;11.13;77.11;99233.38;232944;1174;115706;-67
2021/05/19 01:01:37;;;;;;;7.40;6.45;;;;;;;11.17;77.06;99227.55;232866;1174;115217;-68
2021/05/19 01:11:43;;;;;;;11.18;6.90;;;;;;;11.16;77.04;99241.94;233036;1174;114839;-65
2021/05/19 01:16:46;;;;;;;11.17;6.77;;;;;;;11.19;77.08;99236.11;235071;1170;115452;-67
2021/05/19 01:21:52;;;;;;;6.40;5.78;;;;;;;11.18;76.52;99237.16;233777;1174;117443;-67
2021/05/19 01:26:56;;;;;;;8.65;7.50;;;;;;;11.11;77.13;99226.68;233620;1174;115375;-69
2021/05/19 01:31:59;;;;;;;9.25;7.40;;;;;;;11.15;76.75;99227.80;234686;1174;115725;-68
2021/05/19 01:37:01;;;;;;;10.03;8.57;;;;;;;11.08;76.86;99230.66;235128;1174;115174;-66
2021/05/19 01:42:04;;;;;;;15.23;7.73;;;;;;;11.13;77.00;99232.58;233397;1174;116118;-67
2021/05/19 01:47:08;;;;;;;12.28;7.95;;;;;;;11.17;77.18;99236.36;234284;1174;115133;-67
2021/05/19 01:52:13;;;;;;;10.90;7.65;;;;;;;11.18;77.15;99227.30;232936;1174;115633;-69
2021/05/19 01:57:17;;;;;;;9.33;8.18;;;;;;;11.22;77.49;99238.27;233851;1174;115294;-66
2021/05/19 02:02:24;;;;;;;11.50;9.30;;;;;;;11.26;77.06;99237.53;233296;1174;117973;-68
2021/05/19 02:07:28;;;;;;;14.37;10.23;;;;;;;11.20;77.38;99241.20;232474;1170;137576;-68
2021/05/19 02:12:31;;;;;;;10.10;9.10;;;;;;;11.22;77.45;99240.95;232502;1174;115793;-69
2021/05/19 02:17:35;;;;;;;13.53;10.13;;;;;;;11.25;77.45;99230.58;232648;1174;118770;-67
2021/05/19 02:22:40;;;;;;;12.50;10.10;;;;;;;11.31;77.34;99237.55;235035;1174;115698;-67
2021/05/19 02:27:45;;;;;;;10.55;9.55;;;;;;;11.32;77.31;99235.69;235003;1174;115617;-67
2021/05/19 02:32:49;;;;;;;9.60;8.53;;;;;;;11.32;77.33;99243.70;232937;1174;116057;-68
2021/05/19 02:37:54;;;;;;;15.13;10.03;;;;;;;11.39;77.45;99249.65;232607;1174;116002;-70
2021/05/19 02:42:57;;;;;;;15.48;10.50;;;;;;;11.37;77.60;99249.90;232463;1174;115763;-70
2021/05/19 02:48:01;;;;;;;22.43;11.08;;;;;;;11.39;77.39;99261.13;232504;1174;115621;-71
2021/05/19 02:53:04;;;;;;;11.50;10.30;;;;;;;11.38;77.52;99251.52;232462;1174;115489;-70
2021/05/19 02:58:08;;;;;;;9.90;8.93;;;;;;;11.39;77.51;99254.98;232491;1174;115641;-70
2021/05/19 03:03:11;;;;;;;11.43;9.93;;;;;;;11.38;77.74;99245.37;233692;1173;115196;-68
2021/05/19 03:08:14;;;;;;;13.63;10.00;;;;;;;11.44;78.01;99250.52;233081;1174;115936;-68
2021/05/19 03:13:17;;;;;;;14.23;9.63;;;;;;;11.46;77.73;99255.59;235064;1174;115945;-69
2021/05/19 03:18:22;;;;;;;14.97;10.57;;;;;;;11.50;77.75;99258.57;233891;1174;115687;-68
2021/05/19 03:23:25;;;;;;;14.40;10.75;;;;;;;11.57;77.98;99265.33;234286;1174;115538;-68
2021/05/19 03:28:28;;;;;;;13.58;11.30;;;;;;;11.60;77.81;99267.50;233920;1174;116407;-68
2021/05/19 03:33:31;;;;;;;11.23;10.05;;;;;;;11.66;77.77;99263.79;234980;1174;115447;-69
2021/05/19 03:38:37;;;;;;;11.20;10.07;;;;;;;11.70;77.73;99278.25;235127;1174;115480;-68
2021/05/19 03:43:41;;;;;;;12.97;10.87;;;;;;;11.72;77.64;99278.80;233432;1174;116187;-69
2021/05/19 03:48:45;;;;;;;12.33;10.83;;;;;;;11.72;77.36;99286.81;232673;1167;115871;-66
2021/05/19 03:53:48;;;;;;;14.70;12.00;;;;;;;11.72;77.52;99292.16;233880;1174;116144;-67
2021/05/19 03:58:53;;;;;;;13.38;10.48;;;;;;;11.72;77.60;99288.68;233325;1176;117077;-69
2021/05/19 04:03:57;;;;;;;16.70;11.40;;;;;;;11.73;77.65;99291.09;233469;1174;116680;-67
2021/05/19 04:09:00;;;;;;;15.75;11.13;;;;;;;11.75;77.90;99296.19;232687;1175;116037;-70
2021/05/19 04:14:04;;;;;;;12.63;10.68;;;;;;;11.72;78.03;99305.50;232595;1174;117230;-70
2021/05/19 04:19:08;;;;;;;15.50;11.85;;;;;;;11.76;78.06;99298.64;232595;1171;115757;-70
2021/05/19 04:24:14;;;;;;;13.78;11.28;;;;;;;11.78;77.90;99299.19;232628;1175;116871;-69
2021/05/19 04:29:18;;;;;;;9.37;8.40;;;;;;;11.81;78.10;99305.89;233064;1174;116025;-69
2021/05/19 04:34:22;;;;;;;13.03;10.00;;;;;;;11.82;77.82;99309.37;232577;1174;116097;-70
2021/05/19 04:39:26;;;;;;;11.17;9.87;;;;;;;11.83;78.05;99311.78;232620;1174;116086;-70
2021/05/19 04:44:30;;;;;;;15.63;10.10;;;;;;;11.75;77.99;99326.36;233003;1174;116373;-70
2021/05/19 04:49:34;;;;;;;12.93;10.15;;;;;;;11.73;77.87;99327.67;233288;1174;115821;-67
2021/05/19 04:54:37;;;;;;;11.55;9.68;;;;;;;11.69;77.76;99331.90;232975;1174;116069;-68
2021/05/19 04:59:41;;;;;;;10.13;9.23;;;;;;;11.66;77.78;99343.88;233229;1174;116203;-72
2021/05/19 05:04:45;;;;;;;8.93;8.00;;;;;;;11.62;77.81;99342.77;232598;1176;116548;-72
2021/05/19 05:09:48;;;;;;;8.20;7.20;;;;;;;11.61;77.78;99346.53;232357;1176;117178;-70
2021/05/19 05:14:51;;;;;;;8.73;7.57;;;;;;;11.61;77.79;99356.39;232694;1175;116249;-70
2021/05/19 05:19:55;;;;;;;12.63;8.63;;;;;;;11.59;77.97;99359.31;233259;1174;115675;-67
2021/05/19 05:24:58;;;;;;;10.70;7.87;;;;;;;11.63;78.03;99362.27;234705;1175;116342;-67
2021/05/19 05:30:04;;;;;;;9.35;8.23;;;;;;;11.72;77.70;99366.11;234449;1176;117614;-67
2021/05/19 05:35:09;;;;;;;12.47;9.60;;;;;;;11.69;78.00;99371.95;235065;1176;117253;-67
2021/05/19 05:40:14;;;;;;;11.58;8.55;;;;;;;11.77;77.62;99372.34;234335;1169;116242;-67
2021/05/19 05:45:18;;;;;;;10.68;7.75;;;;;;;11.83;77.90;99370.54;233515;1174;115823;-67
2021/05/19 05:50:22;;;;;;;11.70;9.53;;;;;;;11.84;77.56;99377.50;235046;1174;115653;-67
2021/05/19 05:55:26;;;;;;;13.08;10.50;;;;;;;11.93;77.46;99380.50;234110;1174;115546;-67
2021/05/19 06:00:30;;;;;;;10.48;8.20;;;;;;;11.89;77.55;99380.22;234139;1174;115853;-67
2021/05/19 06:05:35;;;;;;;10.27;8.83;;;;;;;11.94;77.73;99387.45;233392;1171;115672;-67
2021/05/19 06:10:39;;;;;;;13.58;9.70;;;;;;;12.01;77.19;99391.55;233104;1174;115242;-69
2021/05/19 06:15:43;;;;;;;9.67;8.77;;;;;;;12.04;77.68;99388.38;234082;1174;115764;-68
2021/05/19 06:20:46;;;;;;;11.78;9.98;;;;;;;12.13;77.43;99391.41;232751;1174;114850;-68
2021/05/19 06:25:49;;;;;;;9.67;8.23;;;;;;;12.28;77.09;99385.38;232616;1174;115414;-70
2021/05/19 06:30:53;;;;;;;12.27;8.50;;;;;;;12.47;77.02;99386.63;232489;1174;116780;-71
2021/05/19 06:35:56;;;;;;;9.23;8.18;;;;;;;12.74;77.24;99390.03;232467;1174;116279;-70
2021/05/19 06:41:00;;;;;;;11.60;9.63;;;;;;;13.00;76.61;99399.02;232918;1174;115626;-67
2021/05/19 06:46:03;;;;;;;9.70;7.65;;;;;;;13.17;76.01;99403.41;233112;1174;115350;-67
2021/05/19 06:51:06;;;;;;;8.53;7.70;;;;;;;13.18;75.82;99405.83;232488;1170;139846;-66
2021/05/19 06:56:09;;;;;;;8.90;6.85;;;;;;;13.29;75.79;99414.73;232399;1170;115543;-68
2021/05/19 07:01:12;;;;;;;13.20;7.73;;;;;;;13.31;75.27;99418.77;232438;1174;115542;-67
2021/05/19 07:06:19;;;;;;;8.73;7.05;;;;;;;13.41;74.85;99407.30;232405;1174;115494;-69
2021/05/19 07:11:21;;;;;;;4.55;4.13;;;;;;;13.82;73.79;99410.92;232621;1174;115664;-68
2021/05/19 07:16:25;;;;;;;7.23;6.50;;;;;;;14.34;73.66;99410.77;232473;1174;115458;-66
2021/05/19 07:21:28;;;;;;;5.65;3.95;;;;;;;16.19;74.17;99424.27;232305;1174;115170;-68
2021/05/19 07:26:30;;;;;;;4.55;4.15;;;;;;;17.08;71.28;99414.14;234197;1174;115678;-68
2021/05/19 07:31:34;;;;;;;7.50;4.87;;;;;;;17.30;69.77;99414.42;234577;1174;115792;-69
2021/05/19 07:36:38;;;;;;;3.80;3.50;;;;;;;17.54;68.77;99419.00;235115;1174;114672;-69
2021/05/19 07:41:42;;;;;;;3.63;3.23;;;;;;;18.22;67.09;99421.36;235055;1174;114993;-70
2021/05/19 07:46:46;;;;;;;3.90;3.60;;;;;;;18.18;65.99;99429.23;233791;1174;115768;-68
2021/05/19 07:51:49;;;;;;;4.27;3.73;;;;;;;18.45;64.46;99425.85;232904;1174;115670;-69
2021/05/19 07:56:58;;;;;;;3.40;2.90;;;;;;;18.83;64.37;99430.12;232406;1174;118618;-68
2021/05/19 08:02:02;;;;;;;3.63;2.78;;;;;;;18.66;63.01;99437.15;233444;1174;116144;-67
2021/05/19 08:07:07;;;;;;;4.65;2.50;;;;;;;18.71;62.31;99439.77;233665;1174;115753;-69
2021/05/19 08:12:10;;;;;;;3.93;3.13;;;;;;;18.90;61.69;99439.74;232436;1174;115384;-69
2021/05/19 08:17:12;;;;;;;3.70;2.80;;;;;;;18.97;59.97;99448.23;233421;1174;115977;-68
2021/05/19 08:22:15;;;;;;;2.63;2.43;;;;;;;19.14;59.73;99449.29;232468;1175;116930;-68
2021/05/19 08:27:18;;;;;;;2.93;2.73;;;;;;;19.10;58.82;99439.38;232422;1174;117095;-66
2021/05/19 08:32:22;;;;;;;4.00;2.85;;;;;;;18.48;58.61;99444.96;232506;1174;116628;-66
2021/05/19 08:37:26;;;;;;;3.78;3.08;;;;;;;18.07;58.75;99438.55;233043;1174;114863;-68
2021/05/19 08:42:29;;;;;;;3.58;2.58;;;;;;;18.25;59.04;99443.16;232677;1174;116185;-66
2021/05/19 08:47:32;;;;;;;4.88;3.58;;;;;;;18.56;58.44;99432.70;233471;1174;115676;-67
2021/05/19 08:52:38;;;;;;;4.10;3.10;;;;;;;18.27;58.38;99438.28;233048;1174;117677;-66
2021/05/19 08:57:43;;;;;;;2.93;2.23;;;;;;;18.18;58.13;99431.93;233186;1174;116308;-66
2021/05/19 09:03:09;;;;;;;4.03;3.28;;;;;;;18.21;57.61;99438.64;232792;1174;116204;-66
2021/05/19 09:08:16;;;;;;;4.40;2.67;;;;;;;17.92;57.87;99433.38;233270;1174;116250;-67
2021/05/19 09:13:44;;;;;;;2.68;2.33;;;;;;;17.68;57.90;99433.42;233100;1171;117516;-67
2021/05/19 09:18:58;;;;;;;4.00;3.15;;;;;;;17.79;57.14;99432.98;232442;1176;116862;-68
2021/05/19 09:24:03;;;;;;;8.70;2.18;;;;;;;18.05;57.45;99436.14;233311;1174;116744;-68
2021/05/19 09:29:22;;;;;;;2.53;2.33;;;;;;;18.67;56.99;99425.25;234467;1170;115688;-69
2021/05/19 09:34:38;;;;;;;3.85;3.45;;;;;;;19.01;56.14;99433.84;235200;1174;115647;-68
2021/05/19 09:40:12;;;;;;;4.88;3.00;;;;;;;18.61;55.04;99429.16;234420;1175;116050;-68
2021/05/19 09:45:18;;;;;;;3.33;2.80;;;;;;;18.51;55.44;99428.19;233771;1170;115619;-68
2021/05/19 09:50:23;;;;;;;2.60;2.40;;;;;;;18.30;55.30;99426.10;233721;1174;115283;-68
2021/05/19 09:55:27;;;;;;;6.43;2.03;;;;;;;18.03;55.21;99421.38;232780;1174;115960;-68
2021/05/19 10:00:31;;;;;;;1.97;1.87;;;;;;;17.97;54.30;99420.64;233960;1174;116104;-68
2021/05/19 10:05:40;;;;;;;2.63;1.80;;;;;;;17.87;54.36;99417.27;233392;1174;116272;-68
2021/05/19 10:10:43;;;;;;;2.37;1.90;;;;;;;17.45;54.35;99424.21;232767;1174;117030;-68
2021/05/19 10:15:47;;;;;;;3.70;2.27;;;;;;;17.08;54.37;99430.30;232565;1174;115854;-67
2021/05/19 10:20:55;;;;;;;2.25;2.10;;;;;;;16.79;54.71;99432.98;233969;1174;115939;-67
2021/05/19 10:26:13;;;;;;;2.13;1.93;;;;;;;16.74;55.10;99441.11;233421;1174;115455;-68
2021/05/19 10:31:43;;;;;;;2.54;2.26;;;;;;;16.73;54.86;99434.11;232493;1174;139928;-68
2021/05/19 10:36:47;;;;;;;1.80;1.70;;;;;;;16.90;54.51;99429.10;233271;1174;114945;-66
2021/05/19 10:41:53;;;;;;;1.83;1.78;;;;;;;17.02;54.39;99437.61;233224;1167;115819;-68
2021/05/19 10:47:14;;;;;;;2.45;2.25;;;;;;;17.03;54.71;99439.22;232518;1174;115115;-68
2021/05/19 10:52:23;;;;;;;4.15;1.95;;;;;;;16.91;54.27;99438.78;233186;1167;115499;-68
2021/05/19 10:57:34;;;;;;;1.10;1.00;;;;;;;16.70;54.22;99440.05;232966;1174;116205;-67
2021/05/19 11:02:54;;;;;;;2.83;1.88;;;;;;;16.40;54.53;99449.94;233166;1174;115853;-67
2021/05/19 11:13:17;;;;;;;3.23;2.03;;;;;;;16.38;54.67;99433.27;233020;1174;115249;-67
2021/05/19 11:24:06;;;;;;;5.30;2.43;;;;;;;17.10;55.13;99426.23;233947;1174;116841;-67
2021/05/19 11:29:11;;;;;;;2.43;2.25;;;;;;;17.28;54.59;99432.77;233870;1174;116092;-67
2021/05/19 11:34:20;;;;;;;2.00;1.83;;;;;;;17.25;54.22;99433.33;234405;1174;117498;-67
2021/05/19 11:39:37;;;;;;;1.40;1.40;;;;;;;17.36;53.82;99429.45;234246;1175;117137;-68
2021/05/19 11:45:09;;;;;;;1.93;1.55;;;;;;;17.77;53.03;99427.08;235191;1176;116583;-68
2021/05/19 11:50:28;;;;;;;3.30;1.93;;;;;;;18.22;52.63;99424.05;235159;1175;116603;-68
2021/05/19 11:55:49;;;;;;;2.38;2.10;;;;;;;18.15;52.46;99419.02;233844;1176;116382;-67
2021/05/19 12:00:56;;;;;;;3.90;2.37;;;;;;;18.71;52.19;99412.77;235199;1174;137678;-68
2021/05/19 12:06:04;;;;;;;2.10;1.93;;;;;;;19.22;51.24;99412.67;234191;1169;115918;-68
2021/05/19 12:11:19;;;;;;;2.37;1.80;;;;;;;19.16;49.82;99417.38;233611;1174;115307;-68
2021/05/19 12:16:32;;;;;;;1.80;1.68;;;;;;;18.97;49.67;99427.43;234379;1174;115075;-68
2021/05/19 12:21:42;;;;;;;2.73;2.20;;;;;;;19.35;49.54;99427.28;234081;1174;116008;-68
2021/05/19 12:26:47;;;;;;;1.88;1.68;;;;;;;19.66;49.22;99428.30;233192;1174;115924;-68
2021/05/19 12:31:49;;;;;;;3.35;2.35;;;;;;;19.32;48.32;99417.87;232677;1174;115885;-67
2021/05/19 12:36:56;;;;;;;2.30;2.10;;;;;;;18.98;48.81;99414.73;233713;1174;115740;-68
2021/05/19 12:42:11;;;;;;;4.60;2.40;;;;;;;18.84;49.60;99406.61;233116;1174;115139;-68
2021/05/19 12:47:18;;;;;;;2.37;2.17;;;;;;;19.25;49.74;99411.28;233017;1174;115036;-69
2021/05/19 12:52:21;;;;;;;1.88;1.73;;;;;;;19.11;49.18;99414.76;233207;1174;115462;-68
2021/05/19 12:57:27;;;;;;;2.68;2.10;;;;;;;18.84;48.84;99420.12;232509;1174;115658;-68
2021/05/19 13:02:36;;;;;;;4.58;2.98;;;;;;;18.19;48.96;99417.34;232662;1174;115625;-68
2021/05/19 13:07:48;;;;;;;3.67;2.00;;;;;;;17.66;49.24;99422.13;233267;1174;115508;-68
2021/05/19 13:13:24;;;;;;;2.18;2.08;;;;;;;17.25;49.99;99421.76;232804;1174;115765;-68
2021/05/19 13:18:37;;;;;;;4.60;2.17;;;;;;;17.08;50.63;99425.71;232982;1174;115547;-68
2021/05/19 13:23:51;;;;;;;2.95;1.98;;;;;;;17.05;50.96;99423.58;233714;1174;115443;-68
2021/05/19 13:28:55;;;;;;;2.63;2.33;;;;;;;17.12;51.11;99421.33;233449;1174;115673;-68
2021/05/19 13:39:09;;;;;;;2.03;1.93;;;;;;;17.15;50.91;99420.77;234433;1174;115337;-68
2021/05/19 13:44:15;;;;;;;2.70;2.50;;;;;;;17.26;51.32;99424.16;233053;1174;114969;-68
2021/05/19 13:54:25;;;;;;;3.00;1.90;;;;;;;18.00;50.72;99417.36;235047;1174;114777;-68
2021/05/19 13:59:29;;;;;;;1.70;1.58;;;;;;;18.44;49.93;99414.25;234904;1174;115684;-67
2021/05/19 14:04:35;;;;;;;3.60;2.25;;;;;;;18.70;48.99;99420.06;234707;1174;114939;-67
2021/05/19 14:09:40;;;;;;;1.93;1.83;;;;;;;18.61;48.30;99424.56;232918;1171;116383;-68
2021/05/19 14:14:53;;;;;;;1.53;1.43;;;;;;;18.19;48.14;99433.53;233946;1174;116626;-67
2021/05/19 14:20:21;;;;;;;2.98;2.10;;;;;;;17.77;48.34;99415.49;232631;1174;116411;-67
2021/05/19 14:30:49;;;;;;;2.05;1.90;;;;;;;17.67;49.06;99421.84;232782;1172;117587;-67
2021/05/19 15:02:29;;;;;;;2.40;1.60;;;;;;;17.40;49.79;99424.30;233058;1174;115810;-67
2021/05/19 15:07:32;;;;;;;1.93;1.83;;;;;;;17.40;49.52;99430.48;233031;1174;116514;-67
2021/05/19 15:12:36;;;;;;;1.93;1.50;;;;;;;17.45;49.22;99434.98;232805;1174;115754;-67
2021/05/19 15:17:41;;;;;;;2.50;1.53;;;;;;;17.63;49.00;99426.17;232599;1175;115886;-67
2021/05/19 15:22:48;;;;;;;1.50;1.40;;;;;;;17.64;48.97;99433.16;234177;1174;115406;-68
2021/05/19 15:27:51;;;;;;;3.00;1.80;;;;;;;17.57;49.05;99434.59;233128;1170;115272;-68
2021/05/19 15:32:55;;;;;;;2.55;2.00;;;;;;;17.43;48.88;99434.47;232575;1169;116026;-68
2021/05/19 15:37:59;;;;;;;2.28;2.13;;;;;;;17.18;49.03;99435.55;233249;1174;115630;-68
2021/05/19 15:43:02;;;;;;;4.30;1.83;;;;;;;16.93;49.24;99433.92;234282;1174;114861;-68
2021/05/19 15:48:07;;;;;;;2.13;2.03;;;;;;;16.76;49.94;99442.43;235009;1174;115638;-68
2021/05/19 15:53:11;;;;;;;2.35;2.15;;;;;;;16.46;50.00;99439.95;235086;1174;115157;-67
2021/05/19 15:58:15;;;;;;;2.15;2.00;;;;;;;16.33;50.90;99446.75;234950;1174;115847;-67
2021/05/19 16:03:26;;;;;;;4.93;2.55;;;;;;;16.32;51.00;99447.83;235028;1174;115295;-68
2021/05/19 16:08:31;;;;;;;4.38;1.40;;;;;;;16.20;51.24;99447.39;235083;1174;114967;-68
2021/05/19 16:13:34;;;;;;;2.70;2.05;;;;;;;16.18;50.99;99460.31;234523;1174;115210;-67
2021/05/19 16:18:38;;;;;;;1.33;1.18;;;;;;;16.08;51.67;99455.78;234538;1174;115349;-67
2021/05/19 16:23:41;;;;;;;1.30;1.20;;;;;;;16.07;51.46;99453.38;232936;1174;116255;-68
2021/05/19 16:28:45;;;;;;;1.40;1.30;;;;;;;16.06;51.55;99449.88;233704;1174;115544;-68
2021/05/19 16:34:26;;;;;;;3.45;1.70;;;;;;;15.98;51.29;99465.78;232269;1174;116505;-67
2021/05/19 16:39:39;;;;;;;2.43;1.88;;;;;;;15.80;51.29;99459.95;233381;1174;115758;-67
2021/05/19 16:44:44;;;;;;;1.43;1.25;;;;;;;15.71;51.71;99475.03;232803;1174;116084;-68
2021/05/19 16:49:48;;;;;;;3.13;1.90;;;;;;;15.72;52.02;99463.20;232621;1174;115731;-67
2021/05/19 16:54:51;;;;;;;1.87;1.73;;;;;;;15.73;52.33;99470.19;232730;1174;115997;-68
2021/05/19 16:59:53;;;;;;;1.90;1.73;;;;;;;15.69;52.23;99474.50;232606;1174;115869;-67
2021/05/19 17:04:58;;;;;;;2.25;1.43;;;;;;;15.55;52.03;99473.46;232864;1174;115476;-68
2021/05/19 17:10:19;;;;;;;2.33;2.15;;;;;;;15.45;52.45;99479.66;233322;1174;115574;-68
2021/05/19 17:15:23;;;;;;;2.20;2.10;;;;;;;15.36;53.07;99469.73;233322;1174;115141;-67
2021/05/19 17:20:26;;;;;;;2.98;2.25;;;;;;;15.25;53.09;99478.91;233020;1174;116728;-67
2021/05/19 17:25:33;;;;;;;1.63;1.50;;;;;;;15.15;54.42;99471.66;232873;1174;116177;-68
2021/05/19 17:30:37;;;;;;;1.90;1.80;;;;;;;15.05;54.65;99471.67;232739;1176;116366;-67
2021/05/19 17:35:42;;;;;;;2.50;2.30;;;;;;;14.93;54.99;99476.53;232894;1175;117010;-67
2021/05/19 17:40:46;;;;;;;3.48;2.40;;;;;;;14.79;55.05;99481.62;233631;1176;117584;-66
2021/05/19 17:45:49;;;;;;;2.53;2.20;;;;;;;14.67;55.63;99483.78;232923;1174;116021;-67
2021/05/19 17:50:52;;;;;;;2.48;2.23;;;;;;;14.53;56.22;99483.48;232722;1174;116810;-67
2021/05/19 17:55:56;;;;;;;2.40;2.20;;;;;;;14.38;56.67;99488.78;233932;1174;116616;-67
2021/05/19 18:01:00;;;;;;;5.10;2.33;;;;;;;14.23;57.33;99500.29;234386;1174;115088;-67
2021/05/19 18:06:06;;;;;;;3.88;2.75;;;;;;;14.09;57.36;99496.48;234515;1174;115330;-68
2021/05/19 18:11:09;;;;;;;2.35;2.13;;;;;;;14.01;58.04;99502.38;234898;1174;115302;-67
2021/05/19 18:16:13;;;;;;;4.07;3.00;;;;;;;13.99;59.19;99502.63;234560;1174;114857;-68
2021/05/19 18:21:16;;;;;;;1.55;1.45;;;;;;;13.95;59.28;99509.58;234586;1174;115120;-68
2021/05/19 18:26:21;;;;;;;3.23;1.77;;;;;;;13.81;59.85;99514.59;233319;1174;115134;-67
2021/05/19 18:31:30;;;;;;;1.70;1.53;;;;;;;13.54;60.49;99521.96;233457;1167;115154;-67
2021/05/19 18:36:36;;;;;;;3.05;1.83;;;;;;;13.33;60.40;99520.23;233717;1174;115692;-67
2021/05/19 18:41:40;;;;;;;2.38;2.28;;;;;;;13.18;61.12;99520.11;233745;1174;115816;-68
2021/05/19 18:46:44;;;;;;;2.40;2.20;;;;;;;13.02;61.17;99528.00;233693;1174;115166;-67
2021/05/19 18:51:47;;;;;;;5.55;2.60;;;;;;;12.86;61.54;99528.12;232684;1174;115814;-66
2021/05/19 18:56:51;;;;;;;3.73;2.48;;;;;;;12.69;62.21;99536.27;233570;1174;114826;-67
2021/05/19 19:01:54;;;;;;;3.58;3.20;;;;;;;12.45;62.15;99539.26;232719;1174;116657;-67
2021/05/19 19:06:59;;;;;;;5.93;5.30;;;;;;;12.19;62.76;99542.71;233142;1176;119793;-66
2021/05/19 19:12:04;;;;;;;4.38;3.98;;;;;;;11.97;62.21;99555.24;232706;1174;115829;-67
2021/05/19 19:17:07;;;;;;;4.13;3.17;;;;;;;11.69;62.99;99559.66;232997;1175;117907;-67
2021/05/19 19:22:14;;;;;;;4.20;3.80;;;;;;;11.45;63.90;99566.25;232572;1176;117612;-67
2021/05/19 19:27:19;;;;;;;5.00;3.20;;;;;;;11.33;64.21;99568.20;232528;1174;116231;-67
2021/05/19 19:32:24;;;;;;;8.18;4.95;;;;;;;11.25;64.51;99571.30;233000;1175;116781;-67
2021/05/19 19:37:28;;;;;;;7.10;4.40;;;;;;;11.17;64.74;99577.84;232816;1176;117105;-66
2021/05/19 19:42:32;;;;;;;4.35;3.28;;;;;;;11.06;64.82;99576.04;233853;1174;115449;-68
2021/05/19 19:47:36;;;;;;;4.45;3.00;;;;;;;10.96;65.01;99574.03;233262;1174;116769;-70
2021/05/19 19:52:39;;;;;;;8.28;4.35;;;;;;;10.88;65.24;99566.42;233242;1174;115690;-70
2021/05/19 19:57:42;;;;;;;6.07;4.73;;;;;;;10.85;65.16;99561.56;232757;1174;116076;-68
2021/05/19 20:08:01;;;;;;;6.55;4.90;;;;;;;10.74;65.96;99565.90;234477;1172;115411;-67
2021/05/19 20:13:05;;;;;;;6.43;4.70;;;;;;;10.65;65.69;99562.02;232837;1174;117174;-68
2021/05/19 20:18:08;;;;;;;6.30;4.35;;;;;;;10.55;65.80;99569.02;235085;1174;115420;-67
2021/05/19 20:23:12;;;;;;;7.60;4.30;;;;;;;10.49;66.68;99572.63;235077;1174;114888;-65
2021/05/19 20:28:17;;;;;;;7.20;4.95;;;;;;;10.36;66.54;99577.20;232488;1171;115341;-64
2021/05/19 20:33:20;;;;;;;6.23;4.28;;;;;;;10.18;66.05;99576.52;233649;1174;115871;-69
2021/05/19 20:38:23;;;;;;;5.20;3.60;;;;;;;10.00;66.41;99588.96;234320;1174;116141;-67
2021/05/19 20:43:27;;;;;;;6.63;4.30;;;;;;;9.84;66.47;99591.52;232924;1174;115887;-64
2021/05/19 20:48:31;;;;;;;3.58;2.80;;;;;;;9.73;66.80;99590.50;233985;1174;115062;-66
2021/05/19 20:53:35;;;;;;;3.70;3.40;;;;;;;9.60;67.23;99586.21;232907;1174;115526;-69
2021/05/19 20:58:38;;;;;;;5.17;3.77;;;;;;;9.53;68.02;99588.17;232493;1174;114915;-68
2021/05/19 21:03:42;;;;;;;5.70;3.57;;;;;;;9.49;67.67;99580.88;232487;1174;116655;-69
2021/05/19 21:08:48;;;;;;;3.97;3.40;;;;;;;9.36;67.57;99587.25;232760;1171;114848;-67
2021/05/19 21:13:53;;;;;;;4.13;3.20;;;;;;;9.25;68.78;99588.04;232749;1174;115182;-67
2021/05/19 21:18:57;;;;;;;4.80;3.73;;;;;;;9.23;68.55;99587.45;232642;1174;115135;-67
2021/05/19 21:24:01;;;;;;;7.77;3.83;;;;;;;9.19;68.33;99587.10;232465;1174;115376;-70
2021/05/19 21:29:04;;;;;;;7.98;3.88;;;;;;;9.12;68.67;99586.42;232398;1174;114886;-68
2021/05/19 21:34:08;;;;;;;6.37;4.90;;;;;;;9.06;69.41;99596.11;233144;1174;116542;-67
2021/05/19 21:39:13;;;;;;;4.83;4.25;;;;;;;9.05;68.85;99594.49;233433;1174;115294;-70
2021/05/19 21:44:19;;;;;;;5.68;5.18;;;;;;;9.03;69.08;99590.44;233127;1173;114789;-66
2021/05/19 21:49:23;;;;;;;7.33;5.00;;;;;;;8.98;69.15;99599.09;233302;1173;116209;-69
2021/05/19 21:54:27;;;;;;;7.88;5.20;;;;;;;8.88;70.21;99593.51;233708;1174;115108;-68
2021/05/19 21:59:30;;;;;;;8.85;6.58;;;;;;;8.76;69.73;99603.31;232546;1171;115230;-67
2021/05/19 22:04:35;;;;;;;11.63;7.27;;;;;;;8.73;70.32;99601.10;232416;1174;115704;-67
2021/05/19 22:09:42;;;;;;;7.35;5.90;;;;;;;8.61;70.26;99602.89;232682;1174;115450;-66
2021/05/19 22:14:45;;;;;;;;;;;;;;;8.48;70.02;99611.05;235104;1174;115102;-68
2021/05/19 22:25:23;;;;;;;11.88;8.48;;;;;;;8.34;70.09;99619.17;234840;1174;115057;-64
2021/05/19 22:30:26;;;;;;;7.18;5.60;;;;;;;8.31;69.99;99619.59;234357;1174;115523;-68
2021/05/19 22:35:29;;;;;;;6.40;5.40;;;;;;;8.25;70.38;99614.38;233651;1174;115356;-69
2021/05/19 22:40:31;;;;;;;9.27;6.33;;;;;;;8.12;69.87;99625.95;232567;1174;116504;-69
2021/05/19 22:45:34;;;;;;;7.23;5.83;;;;;;;8.02;70.59;99617.67;233295;1174;115906;-68
2021/05/19 22:50:38;;;;;;;7.90;6.00;;;;;;;7.90;70.06;99627.42;233564;1174;116763;-66
2021/05/19 22:55:42;;;;;;;6.70;5.45;;;;;;;7.76;70.11;99627.53;233601;1174;116646;-66
2021/05/19 23:00:45;;;;;;;7.23;5.37;;;;;;;7.69;70.66;99636.58;233156;1174;115377;-66
2021/05/19 23:05:49;;;;;;;7.13;6.35;;;;;;;7.63;71.05;99640.94;232578;1174;116734;-66
2021/05/19 23:10:53;;;;;;;7.33;6.33;;;;;;;7.60;71.00;99638.72;232599;1174;116104;-66
2021/05/19 23:15:56;;;;;;;15.05;6.05;;;;;;;7.59;71.47;99638.94;232412;1174;115882;-68
2021/05/19 23:20:59;;;;;;;8.13;6.48;;;;;;;7.65;71.10;99641.50;233022;1174;117608;-67
2021/05/19 23:26:03;;;;;;;8.00;5.98;;;;;;;7.61;72.18;99643.00;232619;1176;115935;-68
2021/05/19 23:31:07;;;;;;;12.53;7.58;;;;;;;7.58;72.15;99638.13;232520;1174;116064;-68
2021/05/19 23:36:10;;;;;;;7.10;6.30;;;;;;;7.61;72.01;99643.00;232554;1175;115531;-69
2021/05/19 23:41:13;;;;;;;6.10;5.30;;;;;;;7.46;71.54;99642.50;233203;1167;115599;-69
2021/05/19 23:46:17;;;;;;;4.70;4.30;;;;;;;7.26;71.34;99641.85;232507;1174;115836;-67
2021/05/19 23:51:20;;;;;;;7.08;5.13;;;;;;;7.15;71.93;99639.88;232355;1174;115352;-66
2021/05/19 23:56:24;;;;;;;6.57;3.97;;;;;;;7.12;72.11;99648.26;232534;1174;115418;-66
